Berlinville, Ohio
Current Conditions -  °F | °C
As of 7:53 PM on Saturday 25 Oct 2014 (Local Time) from KLPR Reporting Station
Light Rain Light Rain  
Wind Chill: 62°   Ceiling: Unl
Heat Index: 62°   Visibility: 10mi
Dew Point: 43°   Wind: 10mph
Humidity: 50%   Direction: 280°W
Pressure: 29.79"   Gusts: 20mph
Location:  41.3216°N, 82.4633°W
Report Text: KLPR 252353Z AUTO 28009G17KT 10SM -RA CLR 17/06 A2979 RMK AO2 SLP088 P0000 60000 T01670061 10211 20167 53009 TSNO
Loading
Personal Weather Stations






























Interactive Weather Map
Tropical Storm Tracking
New forecast layout! Learn more

10-Day Weather Forecast

Advertisements
Track Severe Weather on mobile